Terminal Aerodrome Forecast
Issued by NWS

Home | Current Version | Previous Version | Text Only | Print | Product List | Glossary On
Versions: 1 2 3 4 5 6 7 8 9 10 11 12 13
000
FTUS43 KDTX 050520
TAFPTK
TAF
KPTK 050520Z 0506/0606 01009KT P6SM SCT100 BKN200
     FM051600 01014G20KT P6SM BKN045
     FM052300 35006KT P6SM FEW060=

USA.gov is the U.S. government's official web portal to all federal, state and local government web resources and services.